^^
Station Historical Data
Daily Summary for February 6, 2018 Units:  Both    English   Metric
« Previous Day
Next Day »
Daily Weekly Monthly Yearly Custom
  High: Low: Average:
Temperature: TemperatureF °F /  -17.8 °C 68.5 °F /  20.3 °C 73.3 °F /  22.9 °C
Dew Point: DewpointF °F /  -17.8 °C 52.0 °F /  11.1 °C 54.3 °F /  12.4 °C
Humidity: Humidity% 38% 52%
Wind Speed: WindSpeedMPHmph /  0km/h - -24.7mph /  -39.7km/h
Wind Gust: WindSpeedGustMPHmph /  0km/h - -
Wind- -
Pressure: PressureIn in /  0 hPa 29.53 in /  999.9 hPa -
Precipitation: 0.04 in /  1.02 mm    
Historical Graphs
 
 
Tabular Data for February 6, 2018
Time Temperature Dew Point Pressure Wind Wind Speed Wind Gust Humidity Rainfall Rate (Hourly) solar Conditions
TemperatureF °F /  -17.8 °C DewpointF °F /  -17.8 °C PressureInin /  0hPa Calm     Humidity% HourlyPrecipInin /  0mm SoftwareType W/m2 Conditions
08:40 69.1 °F /  20.6 °C 52.2 °F /  11.2 °C 29.59in /  1001.9hPa North -999.9mph /  -1609.1km/h -999.0mph /  -1607.7km/h 55% 0.00in /  0mm meteobridge W/m2
08:46 69.6 °F /  20.9 °C 52.2 °F /  11.2 °C 29.60in /  1002.3hPa North 10.1mph /  16.3km/h 10.1mph /  16.3km/h 54% 0.00in /  0mm meteobridge W/m2
08:52 70.0 °F /  21.1 °C 52.5 °F /  11.4 °C 29.59in /  1001.9hPa NE 4.0mph /  6.4km/h 12.0mph /  19.3km/h 54% 0.00in /  0mm meteobridge W/m2
08:58 70.5 °F /  21.4 °C 52.5 °F /  11.4 °C 29.59in /  1001.9hPa NNE 8.9mph /  14.3km/h 13.0mph /  20.9km/h 53% 0.00in /  0mm meteobridge W/m2
09:04 70.9 °F /  21.6 °C 52.9 °F /  11.6 °C 29.60in /  1002.3hPa North 6.0mph /  9.7km/h 15.0mph /  24.1km/h 53% 0.00in /  0mm meteobridge W/m2
09:10 71.2 °F /  21.8 °C 52.7 °F /  11.5 °C 29.60in /  1002.3hPa North 12.1mph /  19.5km/h 12.1mph /  19.5km/h 52% 0.00in /  0mm meteobridge W/m2
09:16 71.4 °F /  21.9 °C 52.9 °F /  11.6 °C 29.60in /  1002.3hPa North 11.0mph /  17.7km/h 13.0mph /  20.9km/h 52% 0.00in /  0mm meteobridge W/m2
09:22 71.8 °F /  22.1 °C 53.2 °F /  11.8 °C 29.60in /  1002.3hPa NNE 10.1mph /  16.3km/h 12.0mph /  19.3km/h 52% 0.00in /  0mm meteobridge W/m2
09:28 71.8 °F /  22.1 °C 53.2 °F /  11.8 °C 29.60in /  1002.3hPa North 6.0mph /  9.7km/h 14.0mph /  22.5km/h 52% 0.00in /  0mm meteobridge W/m2
09:34 72.0 °F /  22.2 °C 53.4 °F /  11.9 °C 29.60in /  1002.3hPa NNE 4.0mph /  6.4km/h 11.0mph /  17.7km/h 52% 0.00in /  0mm meteobridge W/m2
09:40 72.7 °F /  22.6 °C 53.4 °F /  11.9 °C 29.60in /  1002.3hPa North 8.9mph /  14.3km/h 13.0mph /  20.9km/h 51% 0.00in /  0mm meteobridge W/m2
09:46 73.4 °F /  23 °C 53.6 °F /  12 °C 29.61in /  1002.6hPa NE 6.0mph /  9.7km/h 9.0mph /  14.5km/h 50% 0.00in /  0mm meteobridge W/m2
09:53 74.1 °F /  23.4 °C 54.3 °F /  12.4 °C 29.61in /  1002.6hPa North 8.9mph /  14.3km/h 9.0mph /  14.5km/h 50% 0.00in /  0mm meteobridge W/m2
09:59 73.8 °F /  23.2 °C 53.4 °F /  11.9 °C 29.61in /  1002.6hPa NNE 2.0mph /  3.2km/h 12.0mph /  19.3km/h 49% 0.00in /  0mm meteobridge W/m2
10:05 73.8 °F /  23.2 °C 54.0 °F /  12.2 °C 29.61in /  1002.6hPa North 4.0mph /  6.4km/h 8.0mph /  12.9km/h 50% 0.00in /  0mm meteobridge W/m2
10:11 74.1 °F /  23.4 °C 53.8 °F /  12.1 °C 29.61in /  1002.6hPa NNW 6.9mph /  11.1km/h 10.0mph /  16.1km/h 49% 0.00in /  0mm meteobridge W/m2
10:17 74.8 °F /  23.8 °C 53.8 °F /  12.1 °C 29.61in /  1002.6hPa NNE 4.0mph /  6.4km/h 12.0mph /  19.3km/h 48% 0.00in /  0mm meteobridge W/m2
10:23 74.8 °F /  23.8 °C 53.8 °F /  12.1 °C 29.61in /  1002.6hPa North 11.0mph /  17.7km/h 14.0mph /  22.5km/h 48% 0.00in /  0mm meteobridge W/m2
10:29 75.0 °F /  23.9 °C 54.0 °F /  12.2 °C 29.61in /  1002.6hPa NE 4.0mph /  6.4km/h 11.0mph /  17.7km/h 48% 0.00in /  0mm meteobridge W/m2
10:35 75.6 °F /  24.2 °C 53.2 °F /  11.8 °C 29.60in /  1002.3hPa NNE 8.9mph /  14.3km/h 16.0mph /  25.7km/h 46% 0.00in /  0mm meteobridge W/m2
10:41 75.7 °F /  24.3 °C 53.4 °F /  11.9 °C 29.61in /  1002.6hPa NNE 6.9mph /  11.1km/h 12.0mph /  19.3km/h 46% 0.00in /  0mm meteobridge W/m2
10:48 75.9 °F /  24.4 °C 53.6 °F /  12 °C 29.60in /  1002.3hPa NNW 6.0mph /  9.7km/h 11.0mph /  17.7km/h 46% 0.00in /  0mm meteobridge W/m2
10:54 77.2 °F /  25.1 °C 53.6 °F /  12 °C 29.60in /  1002.3hPa North 10.1mph /  16.3km/h 12.0mph /  19.3km/h 44% 0.00in /  0mm meteobridge W/m2
11:00 77.7 °F /  25.4 °C 53.4 °F /  11.9 °C 29.60in /  1002.3hPa North 6.9mph /  11.1km/h 8.0mph /  12.9km/h 43% 0.00in /  0mm meteobridge W/m2
11:06 77.9 °F /  25.5 °C 52.9 °F /  11.6 °C 29.60in /  1002.3hPa North 15.0mph /  24.1km/h 16.0mph /  25.7km/h 42% 0.00in /  0mm meteobridge W/m2
11:12 77.5 °F /  25.3 °C 53.2 °F /  11.8 °C 29.60in /  1002.3hPa NNE 6.9mph /  11.1km/h 14.0mph /  22.5km/h 43% 0.00in /  0mm meteobridge W/m2
11:18 76.5 °F /  24.7 °C 52.9 °F /  11.6 °C 29.60in /  1002.3hPa NNE 2.0mph /  3.2km/h 5.0mph /  8km/h 44% 0.00in /  0mm meteobridge W/m2
11:24 76.6 °F /  24.8 °C 53.1 °F /  11.7 °C 29.59in /  1001.9hPa NNE 0.9mph /  1.4km/h 7.0mph /  11.3km/h 44% 0.00in /  0mm meteobridge W/m2
11:30 77.7 °F /  25.4 °C 53.4 °F /  11.9 °C 29.59in /  1001.9hPa North 12.1mph /  19.5km/h 12.1mph /  19.5km/h 43% 0.00in /  0mm meteobridge W/m2
11:37 76.8 °F /  24.9 °C 53.2 °F /  11.8 °C 29.59in /  1001.9hPa NW 10.1mph /  16.3km/h 15.0mph /  24.1km/h 44% 0.00in /  0mm meteobridge W/m2
11:43 77.4 °F /  25.2 °C 53.1 °F /  11.7 °C 29.59in /  1001.9hPa North 11.0mph /  17.7km/h 14.0mph /  22.5km/h 43% 0.00in /  0mm meteobridge W/m2
11:49 76.8 °F /  24.9 °C 53.2 °F /  11.8 °C 29.59in /  1001.9hPa NE 4.0mph /  6.4km/h 10.0mph /  16.1km/h 44% 0.00in /  0mm meteobridge W/m2
11:55 78.1 °F /  25.6 °C 53.1 °F /  11.7 °C 29.59in /  1001.9hPa NNE 4.0mph /  6.4km/h 10.0mph /  16.1km/h 42% 0.00in /  0mm meteobridge W/m2
12:01 78.6 °F /  25.9 °C 53.6 °F /  12 °C 29.58in /  1001.6hPa SE 4.0mph /  6.4km/h 4.0mph /  6.4km/h 42% 0.00in /  0mm meteobridge W/m2
12:07 79.5 °F /  26.4 °C 52.3 °F /  11.3 °C 29.58in /  1001.6hPa NE 6.0mph /  9.7km/h 10.0mph /  16.1km/h 39% 0.00in /  0mm meteobridge W/m2
12:13 79.0 °F /  26.1 °C 52.0 °F /  11.1 °C 29.58in /  1001.6hPa North 8.1mph /  13km/h 12.0mph /  19.3km/h 39% 0.00in /  0mm meteobridge W/m2
12:20 79.2 °F /  26.2 °C 52.7 °F /  11.5 °C 29.58in /  1001.6hPa North 8.9mph /  14.3km/h 16.0mph /  25.7km/h 40% 0.00in /  0mm meteobridge W/m2
12:26 78.8 °F /  26 °C 52.5 °F /  11.4 °C 29.58in /  1001.6hPa ENE 4.0mph /  6.4km/h 6.0mph /  9.7km/h 40% 0.00in /  0mm meteobridge W/m2
12:32 80.8 °F /  27.1 °C 52.9 °F /  11.6 °C 29.58in /  1001.6hPa SSW 2.9mph /  4.7km/h 11.0mph /  17.7km/h 38% 0.00in /  0mm meteobridge W/m2
12:38 80.2 °F /  26.8 °C 52.3 °F /  11.3 °C 29.58in /  1001.6hPa NNE 14.1mph /  22.7km/h 14.1mph /  22.7km/h 38% 0.00in /  0mm meteobridge W/m2
12:44 78.6 °F /  25.9 °C 52.3 °F /  11.3 °C 29.58in /  1001.6hPa North 4.9mph /  7.9km/h 11.0mph /  17.7km/h 40% 0.00in /  0mm meteobridge W/m2
12:50 78.3 °F /  25.7 °C 52.0 °F /  11.1 °C 29.57in /  1001.2hPa NNE 10.1mph /  16.3km/h 12.0mph /  19.3km/h 40% 0.00in /  0mm meteobridge W/m2
12:56 78.3 °F /  25.7 °C 52.0 °F /  11.1 °C 29.57in /  1001.2hPa North 11.0mph /  17.7km/h 14.0mph /  22.5km/h 40% 0.00in /  0mm meteobridge W/m2
13:02 78.4 °F /  25.8 °C 52.2 °F /  11.2 °C 29.57in /  1001.2hPa NNE 8.9mph /  14.3km/h 11.0mph /  17.7km/h 40% 0.00in /  0mm meteobridge W/m2
13:08 78.6 °F /  25.9 °C 52.3 °F /  11.3 °C 29.57in /  1001.2hPa NE 4.9mph /  7.9km/h 9.0mph /  14.5km/h 40% 0.00in /  0mm meteobridge W/m2
13:14 79.0 °F /  26.1 °C 52.5 °F /  11.4 °C 29.57in /  1001.2hPa NNE 10.1mph /  16.3km/h 14.0mph /  22.5km/h 40% 0.00in /  0mm meteobridge W/m2
13:20 80.1 °F /  26.7 °C 52.9 °F /  11.6 °C 29.57in /  1001.2hPa East 2.9mph /  4.7km/h 9.0mph /  14.5km/h 39% 0.00in /  0mm meteobridge W/m2
13:27 81.1 °F /  27.3 °C 53.8 °F /  12.1 °C 29.57in /  1001.2hPa NNE 6.9mph /  11.1km/h 12.0mph /  19.3km/h 39% 0.00in /  0mm meteobridge W/m2
13:33 79.7 °F /  26.5 °C 53.2 °F /  11.8 °C 29.57in /  1001.2hPa NNE 6.0mph /  9.7km/h 12.0mph /  19.3km/h 40% 0.00in /  0mm meteobridge W/m2
13:39 78.4 °F /  25.8 °C 53.4 °F /  11.9 °C 29.56in /  1000.9hPa North 10.1mph /  16.3km/h 13.0mph /  20.9km/h 42% 0.00in /  0mm meteobridge W/m2
13:45 78.1 °F /  25.6 °C 53.1 °F /  11.7 °C 29.55in /  1000.6hPa North 6.0mph /  9.7km/h 11.0mph /  17.7km/h 42% 0.00in /  0mm meteobridge W/m2
13:51 77.7 °F /  25.4 °C 53.4 °F /  11.9 °C 29.55in /  1000.6hPa NNW 2.0mph /  3.2km/h 8.0mph /  12.9km/h 43% 0.00in /  0mm meteobridge W/m2
13:57 77.4 °F /  25.2 °C 53.1 °F /  11.7 °C 29.55in /  1000.6hPa North 10.1mph /  16.3km/h 12.0mph /  19.3km/h 43% 0.00in /  0mm meteobridge W/m2
14:03 76.5 °F /  24.7 °C 54.7 °F /  12.6 °C 29.54in /  1000.2hPa NNW 10.1mph /  16.3km/h 11.0mph /  17.7km/h 47% 0.00in /  0mm meteobridge W/m2
14:09 74.3 °F /  23.5 °C 56.7 °F /  13.7 °C 29.56in /  1000.9hPa NNW 10.1mph /  16.3km/h 15.0mph /  24.1km/h 54% 0.01in /  0.25mm meteobridge W/m2
14:16 71.2 °F /  21.8 °C 58.8 °F /  14.9 °C 29.55in /  1000.6hPa Calm     65% 0.02in /  0.51mm meteobridge W/m2
14:22 70.2 °F /  21.2 °C 60.6 °F /  15.9 °C 29.56in /  1000.9hPa North 0.9mph /  1.4km/h 3.0mph /  4.8km/h 72% 0.03in /  0.76mm meteobridge W/m2
14:28 69.3 °F /  20.7 °C 60.3 °F /  15.7 °C 29.56in /  1000.9hPa Calm     73% 0.03in /  0.76mm meteobridge W/m2
14:34 69.3 °F /  20.7 °C 61.7 °F /  16.5 °C 29.55in /  1000.6hPa Calm   3.0mph /  4.8km/h 77% 0.03in /  0.76mm meteobridge W/m2
14:40 68.9 °F /  20.5 °C 61.0 °F /  16.1 °C 29.55in /  1000.6hPa East 0.9mph /  1.4km/h 3.0mph /  4.8km/h 76% 0.03in /  0.76mm meteobridge W/m2
14:46 68.5 °F /  20.3 °C 60.3 °F /  15.7 °C 29.55in /  1000.6hPa East 2.0mph /  3.2km/h 3.0mph /  4.8km/h 75% 0.04in /  1.02mm meteobridge W/m2
14:52 68.9 °F /  20.5 °C 59.2 °F /  15.1 °C 29.54in /  1000.2hPa SSE 0.9mph /  1.4km/h 7.0mph /  11.3km/h 71% 0.04in /  1.02mm meteobridge W/m2
14:58 69.1 °F /  20.6 °C 60.4 °F /  15.8 °C 29.54in /  1000.2hPa East 8.9mph /  14.3km/h 11.0mph /  17.7km/h 74% 0.04in /  1.02mm meteobridge W/m2
15:04 69.1 °F /  20.6 °C 57.7 °F /  14.3 °C 29.55in /  1000.6hPa NNW 6.9mph /  11.1km/h 9.0mph /  14.5km/h 67% 0.03in /  0.76mm meteobridge W/m2
15:11 69.6 °F /  20.9 °C 59.0 °F /  15 °C 29.55in /  1000.6hPa SSE 2.0mph /  3.2km/h 6.0mph /  9.7km/h 69% 0.02in /  0.51mm meteobridge W/m2
15:17 69.4 °F /  20.8 °C 58.8 °F /  14.9 °C 29.55in /  1000.6hPa SSE 4.9mph /  7.9km/h 5.0mph /  8km/h 69% 0.01in /  0.25mm meteobridge W/m2
15:23 70.0 °F /  21.1 °C 59.0 °F /  15 °C 29.55in /  1000.6hPa ESE 2.9mph /  4.7km/h 7.0mph /  11.3km/h 68% 0.01in /  0.25mm meteobridge W/m2
15:29 70.5 °F /  21.4 °C 57.7 °F /  14.3 °C 29.55in /  1000.6hPa Calm   4.0mph /  6.4km/h 64% 0.00in /  0mm meteobridge W/m2
15:50 74.7 °F /  23.7 °C 54.9 °F /  12.7 °C 29.54in /  1000.2hPa NE 0.9mph /  1.4km/h 4.0mph /  6.4km/h 50% 0.00in /  0mm meteobridge W/m2
15:56 76.3 °F /  24.6 °C 55.2 °F /  12.9 °C 29.54in /  1000.2hPa NNE 2.0mph /  3.2km/h 7.0mph /  11.3km/h 48% 0.00in /  0mm meteobridge W/m2
16:02 75.9 °F /  24.4 °C 58.1 °F /  14.5 °C 29.54in /  1000.2hPa SSE 2.9mph /  4.7km/h 4.0mph /  6.4km/h 54% 0.00in /  0mm meteobridge W/m2
16:08 75.4 °F /  24.1 °C 55.9 °F /  13.3 °C 29.53in /  999.9hPa SSE 2.9mph /  4.7km/h 4.0mph /  6.4km/h 51% 0.00in /  0mm meteobridge W/m2
16:14 75.4 °F /  24.1 °C 55.4 °F /  13 °C 29.53in /  999.9hPa Calm   4.0mph /  6.4km/h 50% 0.00in /  0mm meteobridge W/m2
16:20 75.4 °F /  24.1 °C 55.4 °F /  13 °C 29.54in /  1000.2hPa SSE 4.9mph /  7.9km/h 5.0mph /  8km/h 50% 0.00in /  0mm meteobridge W/m2
16:26 75.0 °F /  23.9 °C 55.0 °F /  12.8 °C 29.54in /  1000.2hPa SSE 2.9mph /  4.7km/h 4.0mph /  6.4km/h 50% 0.00in /  0mm meteobridge W/m2
16:32 74.8 °F /  23.8 °C 55.0 °F /  12.8 °C 29.54in /  1000.2hPa SSE 4.0mph /  6.4km/h 4.0mph /  6.4km/h 50% 0.00in /  0mm meteobridge W/m2
16:38 74.8 °F /  23.8 °C 55.6 °F /  13.1 °C 29.54in /  1000.2hPa SSE 4.9mph /  7.9km/h 7.0mph /  11.3km/h 51% 0.00in /  0mm meteobridge W/m2
16:45 74.7 °F /  23.7 °C 55.9 °F /  13.3 °C 29.54in /  1000.2hPa SSE 2.9mph /  4.7km/h 6.0mph /  9.7km/h 52% 0.00in /  0mm meteobridge W/m2
16:51 74.1 °F /  23.4 °C 55.4 °F /  13 °C 29.54in /  1000.2hPa SSE 4.0mph /  6.4km/h 6.0mph /  9.7km/h 52% 0.00in /  0mm meteobridge W/m2
16:57 73.2 °F /  22.9 °C 55.6 °F /  13.1 °C 29.54in /  1000.2hPa South 6.9mph /  11.1km/h 9.0mph /  14.5km/h 54% 0.00in /  0mm meteobridge W/m2
17:03 72.1 °F /  22.3 °C 56.1 °F /  13.4 °C 29.54in /  1000.2hPa SE 6.0mph /  9.7km/h 12.0mph /  19.3km/h 57% 0.00in /  0mm meteobridge W/m2
17:09 71.8 °F /  22.1 °C 56.1 °F /  13.4 °C 29.55in /  1000.6hPa SSE 8.9mph /  14.3km/h 14.0mph /  22.5km/h 58% 0.00in /  0mm meteobridge W/m2
17:15 71.8 °F /  22.1 °C 56.7 °F /  13.7 °C 29.55in /  1000.6hPa South 6.0mph /  9.7km/h 14.0mph /  22.5km/h 59% 0.00in /  0mm meteobridge W/m2
17:21 72.1 °F /  22.3 °C 57.0 °F /  13.9 °C 29.55in /  1000.6hPa South 6.9mph /  11.1km/h 11.0mph /  17.7km/h 59% 0.00in /  0mm meteobridge W/m2
17:44 70.9 °F /  21.6 °C 56.3 °F /  13.5 °C 29.55in /  1000.6hPa South 6.9mph /  11.1km/h 8.0mph /  12.9km/h 60% 0.00in /  0mm meteobridge W/m2
17:50 70.5 °F /  21.4 °C 55.9 °F /  13.3 °C 29.55in /  1000.6hPa South 4.9mph /  7.9km/h 7.0mph /  11.3km/h 60% 0.00in /  0mm meteobridge W/m2
18:12 71.1 °F /  21.7 °C 56.5 °F /  13.6 °C 29.55in /  1000.6hPa South 4.9mph /  7.9km/h 12.0mph /  19.3km/h 60% 0.00in /  0mm meteobridge W/m2
18:18 70.5 °F /  21.4 °C 56.8 °F /  13.8 °C 29.56in /  1000.9hPa South 4.9mph /  7.9km/h 12.0mph /  19.3km/h 62% 0.00in /  0mm meteobridge W/m2
18:25 70.2 °F /  21.2 °C 57.4 °F /  14.1 °C 29.56in /  1000.9hPa SSE 6.9mph /  11.1km/h 11.0mph /  17.7km/h 64% 0.00in /  0mm meteobridge W/m2
18:31 69.6 °F /  20.9 °C 56.8 °F /  13.8 °C 29.57in /  1001.2hPa SSE 6.9mph /  11.1km/h 10.0mph /  16.1km/h 64% 0.00in /  0mm meteobridge W/m2
18:37 69.4 °F /  20.8 °C 56.3 °F /  13.5 °C 29.56in /  1000.9hPa SSE 6.9mph /  11.1km/h 8.0mph /  12.9km/h 63% 0.00in /  0mm meteobridge W/m2
18:43 69.8 °F /  21 °C 55.2 °F /  12.9 °C 29.56in /  1000.9hPa SSE 10.1mph /  16.3km/h 12.0mph /  19.3km/h 60% 0.00in /  0mm meteobridge W/m2
18:49 70.3 °F /  21.3 °C 55.4 °F /  13 °C 29.57in /  1001.2hPa SSE 10.1mph /  16.3km/h 12.0mph /  19.3km/h 59% 0.00in /  0mm meteobridge W/m2
18:55 70.3 °F /  21.3 °C 54.9 °F /  12.7 °C 29.57in /  1001.2hPa SSE 0.9mph /  1.4km/h 4.0mph /  6.4km/h 58% 0.00in /  0mm meteobridge W/m2
19:01 70.3 °F /  21.3 °C 54.9 °F /  12.7 °C 29.57in /  1001.2hPa SSE 0.9mph /  1.4km/h -999.0mph /  -1607.7km/h 58% 0.00in /  0mm meteobridge W/m2
19:08 70.3 °F /  21.3 °C 54.9 °F /  12.7 °C 29.57in /  1001.2hPa SSE 0.9mph /  1.4km/h -999.0mph /  -1607.7km/h 58% 0.00in /  0mm meteobridge W/m2
19:14 70.3 °F /  21.3 °C 54.9 °F /  12.7 °C 29.57in /  1001.2hPa North -999.9mph /  -1609.1km/h -999.0mph /  -1607.7km/h 58% 0.00in /  0mm meteobridge W/m2
19:20 70.3 °F /  21.3 °C 54.9 °F /  12.7 °C 29.58in /  1001.6hPa North -999.9mph /  -1609.1km/h -999.0mph /  -1607.7km/h 58% 0.00in /  0mm meteobridge W/m2
Regenstein, Windhoek, Namibia
Compliments of Weather Underground - 2.5 mb